sensor_id;sensor_type;location;lat;lon;timestamp;pressure;altitude;pressure_sealevel;temperature;humidity
39949;BME280;29070;48.102;-1.652;2023-03-26T00:02:10;100072.81;;;10.16;76.64
39949;BME280;29070;48.102;-1.652;2023-03-26T00:07:11;100100.69;;;10.04;76.32
39949;BME280;29070;48.102;-1.652;2023-03-26T00:12:11;100114.22;;;9.94;76.06
39949;BME280;29070;48.102;-1.652;2023-03-26T00:17:12;100142.69;;;9.84;76.16
39949;BME280;29070;48.102;-1.652;2023-03-26T00:22:12;100146.69;;;9.80;75.83
39949;BME280;29070;48.102;-1.652;2023-03-26T00:27:13;100187.03;;;9.72;75.64
39949;BME280;29070;48.102;-1.652;2023-03-26T00:32:13;100186.25;;;9.71;75.79
39949;BME280;29070;48.102;-1.652;2023-03-26T00:37:14;100210.81;;;9.70;75.84
39949;BME280;29070;48.102;-1.652;2023-03-26T00:42:14;100208.41;;;9.69;75.65
39949;BME280;29070;48.102;-1.652;2023-03-26T00:47:14;100214.66;;;9.68;75.57
39949;BME280;29070;48.102;-1.652;2023-03-26T00:52:16;100215.66;;;9.60;75.61
39949;BME280;29070;48.102;-1.652;2023-03-26T00:57:22;100225.31;;;9.53;75.49
39949;BME280;29070;48.102;-1.652;2023-03-26T01:02:22;100251.94;;;9.50;75.57
39949;BME280;29070;48.102;-1.652;2023-03-26T01:07:25;100237.41;;;9.47;75.46
39949;BME280;29070;48.102;-1.652;2023-03-26T01:12:29;100242.44;;;9.42;75.37
39949;BME280;29070;48.102;-1.652;2023-03-26T01:17:33;100255.13;;;9.39;75.30
39949;BME280;29070;48.102;-1.652;2023-03-26T01:22:34;100247.88;;;9.34;75.58
39949;BME280;29070;48.102;-1.652;2023-03-26T01:32:54;100263.38;;;9.42;75.38
39949;BME280;29070;48.102;-1.652;2023-03-26T01:38:07;100271.25;;;9.42;75.35
39949;BME280;29070;48.102;-1.652;2023-03-26T01:48:40;100259.56;;;9.38;75.32
39949;BME280;29070;48.102;-1.652;2023-03-26T01:53:45;100261.97;;;9.33;75.14
39949;BME280;29070;48.102;-1.652;2023-03-26T02:09:24;100246.22;;;9.20;74.97
39949;BME280;29070;48.102;-1.652;2023-03-26T02:14:29;100255.47;;;9.15;75.35
39949;BME280;29070;48.102;-1.652;2023-03-26T02:19:29;100243.16;;;9.09;75.01
39949;BME280;29070;48.102;-1.652;2023-03-26T02:24:30;100251.81;;;9.03;75.17
39949;BME280;29070;48.102;-1.652;2023-03-26T02:29:30;100248.56;;;9.01;75.08
39949;BME280;29070;48.102;-1.652;2023-03-26T02:34:30;100226.22;;;8.99;75.55
39949;BME280;29070;48.102;-1.652;2023-03-26T02:39:31;100236.69;;;8.99;75.16
39949;BME280;29070;48.102;-1.652;2023-03-26T02:44:32;100230.84;;;8.96;75.59
39949;BME280;29070;48.102;-1.652;2023-03-26T02:49:32;100226.41;;;8.97;75.30
39949;BME280;29070;48.102;-1.652;2023-03-26T02:54:33;100226.03;;;9.00;75.63
39949;BME280;29070;48.102;-1.652;2023-03-26T02:59:34;100223.41;;;9.00;75.64
39949;BME280;29070;48.102;-1.652;2023-03-26T03:04:34;100221.41;;;9.02;75.46
39949;BME280;29070;48.102;-1.652;2023-03-26T03:09:34;100215.16;;;9.03;75.33
39949;BME280;29070;48.102;-1.652;2023-03-26T03:14:35;100216.16;;;9.02;75.44
39949;BME280;29070;48.102;-1.652;2023-03-26T03:19:36;100211.53;;;9.04;75.55
39949;BME280;29070;48.102;-1.652;2023-03-26T03:24:37;100198.84;;;9.08;75.79
39949;BME280;29070;48.102;-1.652;2023-03-26T03:29:38;100210.13;;;9.08;75.69
39949;BME280;29070;48.102;-1.652;2023-03-26T03:34:40;100213.97;;;9.06;75.71
39949;BME280;29070;48.102;-1.652;2023-03-26T03:39:41;100214.38;;;9.09;75.71
39949;BME280;29070;48.102;-1.652;2023-03-26T03:44:41;100196.25;;;9.14;75.71
39949;BME280;29070;48.102;-1.652;2023-03-26T03:49:42;100195.88;;;9.18;75.54
39949;BME280;29070;48.102;-1.652;2023-03-26T03:54:42;100187.00;;;9.19;75.79
39949;BME280;29070;48.102;-1.652;2023-03-26T03:59:43;100182.16;;;9.15;75.76
39949;BME280;29070;48.102;-1.652;2023-03-26T04:04:43;100171.06;;;9.13;75.65
39949;BME280;29070;48.102;-1.652;2023-03-26T04:09:45;100182.16;;;9.15;75.76
39949;BME280;29070;48.102;-1.652;2023-03-26T04:14:45;100182.56;;;9.12;75.86
39949;BME280;29070;48.102;-1.652;2023-03-26T04:19:46;100177.34;;;9.12;75.91
39949;BME280;29070;48.102;-1.652;2023-03-26T04:24:47;100175.28;;;9.08;75.75
39949;BME280;29070;48.102;-1.652;2023-03-26T04:29:49;100162.41;;;9.06;75.67
39949;BME280;29070;48.102;-1.652;2023-03-26T04:34:49;100158.97;;;9.06;75.54
39949;BME280;29070;48.102;-1.652;2023-03-26T04:39:49;100166.84;;;9.06;75.37
39949;BME280;29070;48.102;-1.652;2023-03-26T04:44:50;100172.66;;;9.01;75.62
39949;BME280;29070;48.102;-1.652;2023-03-26T04:49:51;100174.66;;;8.99;75.13
39949;BME280;29070;48.102;-1.652;2023-03-26T04:54:51;100192.56;;;8.95;75.48
39949;BME280;29070;48.102;-1.652;2023-03-26T04:59:52;100200.63;;;8.94;75.44
39949;BME280;29070;48.102;-1.652;2023-03-26T05:04:52;100209.50;;;8.93;75.66
39949;BME280;29070;48.102;-1.652;2023-03-26T05:09:52;100207.88;;;8.92;75.53
39949;BME280;29070;48.102;-1.652;2023-03-26T05:14:53;100210.44;;;8.85;75.56
39949;BME280;29070;48.102;-1.652;2023-03-26T05:19:53;100200.22;;;8.84;75.59
39949;BME280;29070;48.102;-1.652;2023-03-26T05:24:53;100215.69;;;8.78;75.54
39949;BME280;29070;48.102;-1.652;2023-03-26T05:29:59;100225.13;;;8.73;75.33
39949;BME280;29070;48.102;-1.652;2023-03-26T05:35:00;100231.31;;;8.65;75.32
39949;BME280;29070;48.102;-1.652;2023-03-26T05:40:01;100227.63;;;8.53;75.66
39949;BME280;29070;48.102;-1.652;2023-03-26T05:45:05;100220.19;;;8.50;75.49
39949;BME280;29070;48.102;-1.652;2023-03-26T05:50:06;100224.72;;;8.41;75.28
39949;BME280;29070;48.102;-1.652;2023-03-26T05:55:07;100233.75;;;8.38;75.64
39949;BME280;29070;48.102;-1.652;2023-03-26T06:00:08;100240.94;;;8.30;75.76
39949;BME280;29070;48.102;-1.652;2023-03-26T06:05:10;100251.75;;;8.20;75.88
39949;BME280;29070;48.102;-1.652;2023-03-26T06:10:11;100250.72;;;8.14;75.63
39949;BME280;29070;48.102;-1.652;2023-03-26T06:15:12;100248.66;;;8.10;76.03
39949;BME280;29070;48.102;-1.652;2023-03-26T06:20:13;100235.94;;;8.00;76.08
39949;BME280;29070;48.102;-1.652;2023-03-26T06:25:14;100236.72;;;8.00;76.15
39949;BME280;29070;48.102;-1.652;2023-03-26T06:30:15;100235.13;;;7.99;76.00
39949;BME280;29070;48.102;-1.652;2023-03-26T06:35:15;100241.75;;;8.02;76.08
39949;BME280;29070;48.102;-1.652;2023-03-26T06:40:16;100245.19;;;8.02;76.45
39949;BME280;29070;48.102;-1.652;2023-03-26T06:45:16;100253.63;;;8.05;76.42
39949;BME280;29070;48.102;-1.652;2023-03-26T06:50:17;100254.28;;;8.07;76.43
39949;BME280;29070;48.102;-1.652;2023-03-26T06:55:24;100260.13;;;8.09;76.77
39949;BME280;29070;48.102;-1.652;2023-03-26T07:00:25;100254.13;;;8.15;77.12
39949;BME280;29070;48.102;-1.652;2023-03-26T07:05:25;100247.50;;;8.19;77.11
39949;BME280;29070;48.102;-1.652;2023-03-26T07:10:26;100247.00;;;8.30;76.95
39949;BME280;29070;48.102;-1.652;2023-03-26T07:15:27;100238.31;;;8.58;77.43
39949;BME280;29070;48.102;-1.652;2023-03-26T07:20:28;100242.28;;;8.89;77.55
39949;BME280;29070;48.102;-1.652;2023-03-26T07:25:29;100233.69;;;9.08;77.62
39949;BME280;29070;48.102;-1.652;2023-03-26T07:30:52;100234.13;;;9.19;77.41
39949;BME280;29070;48.102;-1.652;2023-03-26T07:36:19;100227.09;;;9.26;77.29
39949;BME280;29070;48.102;-1.652;2023-03-26T07:41:44;100225.50;;;9.31;76.98
39949;BME280;29070;48.102;-1.652;2023-03-26T07:46:49;100220.88;;;9.40;77.06
39949;BME280;29070;48.102;-1.652;2023-03-26T07:51:52;100235.38;;;9.49;77.16
39949;BME280;29070;48.102;-1.652;2023-03-26T07:57:05;100227.16;;;9.66;77.41
39949;BME280;29070;48.102;-1.652;2023-03-26T08:07:47;100252.38;;;9.80;77.00
39949;BME280;29070;48.102;-1.652;2023-03-26T08:12:59;100270.50;;;9.68;77.17
39949;BME280;29070;48.102;-1.652;2023-03-26T08:23:50;100270.00;;;9.31;77.73
39949;BME280;29070;48.102;-1.652;2023-03-26T08:34:17;100266.25;;;8.86;77.23
39949;BME280;29070;48.102;-1.652;2023-03-26T08:39:17;100280.69;;;8.75;77.77
39949;BME280;29070;48.102;-1.652;2023-03-26T08:55:47;100271.00;;;8.75;77.82
39949;BME280;29070;48.102;-1.652;2023-03-26T09:00:55;100276.84;;;8.77;77.50
39949;BME280;29070;48.102;-1.652;2023-03-26T09:22:13;100273.22;;;8.15;77.93
39949;BME280;29070;48.102;-1.652;2023-03-26T09:32:33;100300.31;;;8.08;77.70
39949;BME280;29070;48.102;-1.652;2023-03-26T09:48:46;100267.53;;;8.05;78.08
39949;BME280;29070;48.102;-1.652;2023-03-26T10:04:29;100292.78;;;8.19;78.66
39949;BME280;29070;48.102;-1.652;2023-03-26T10:09:51;100283.53;;;8.24;78.56
39949;BME280;29070;48.102;-1.652;2023-03-26T10:15:30;100284.09;;;8.19;78.66
39949;BME280;29070;48.102;-1.652;2023-03-26T10:20:58;100277.72;;;8.50;79.40
39949;BME280;29070;48.102;-1.652;2023-03-26T10:52:40;100276.75;;;9.74;78.91
39949;BME280;29070;48.102;-1.652;2023-03-26T10:57:44;100269.72;;;9.95;78.85
39949;BME280;29070;48.102;-1.652;2023-03-26T11:08:25;100271.50;;;10.41;78.48
39949;BME280;29070;48.102;-1.652;2023-03-26T11:13:59;100284.22;;;10.57;78.11
39949;BME280;29070;48.102;-1.652;2023-03-26T11:40:26;100316.59;;;10.96;77.05
39949;BME280;29070;48.102;-1.652;2023-03-26T11:45:31;100314.34;;;11.06;77.01
39949;BME280;29070;48.102;-1.652;2023-03-26T11:50:40;100314.53;;;11.12;76.75
39949;BME280;29070;48.102;-1.652;2023-03-26T11:55:57;100307.41;;;11.19;76.51
39949;BME280;29070;48.102;-1.652;2023-03-26T12:01:01;100311.41;;;11.28;75.38
39949;BME280;29070;48.102;-1.652;2023-03-26T12:06:02;100320.25;;;11.40;76.71
39949;BME280;29070;48.102;-1.652;2023-03-26T12:11:06;100322.38;;;11.57;76.43
39949;BME280;29070;48.102;-1.652;2023-03-26T12:16:13;100323.78;;;11.66;76.16
39949;BME280;29070;48.102;-1.652;2023-03-26T12:21:17;100332.09;;;11.95;76.39
39949;BME280;29070;48.102;-1.652;2023-03-26T12:26:36;100333.66;;;12.28;75.86
39949;BME280;29070;48.102;-1.652;2023-03-26T12:31:44;100340.00;;;12.45;75.48
39949;BME280;29070;48.102;-1.652;2023-03-26T12:36:52;100335.13;;;12.67;75.08
39949;BME280;29070;48.102;-1.652;2023-03-26T12:41:55;100342.75;;;12.75;74.64
39949;BME280;29070;48.102;-1.652;2023-03-26T13:25:21;100375.94;;;14.23;70.72
39949;BME280;29070;48.102;-1.652;2023-03-26T13:30:36;100380.91;;;13.89;69.30
39949;BME280;29070;48.102;-1.652;2023-03-26T13:35:59;100389.50;;;13.54;65.65
39949;BME280;29070;48.102;-1.652;2023-03-26T13:41:12;100444.19;;;12.78;69.82
39949;BME280;29070;48.102;-1.652;2023-03-26T14:02:10;100431.84;;;12.78;72.02
39949;BME280;29070;48.102;-1.652;2023-03-26T14:07:59;100429.63;;;13.01;71.64
39949;BME280;29070;48.102;-1.652;2023-03-26T14:24:01;100471.56;;;13.21;70.78
39949;BME280;29070;48.102;-1.652;2023-03-26T14:35:51;100483.22;;;13.13;68.78
39949;BME280;29070;48.102;-1.652;2023-03-26T14:56:37;100528.38;;;13.97;68.75
39949;BME280;29070;48.102;-1.652;2023-03-26T15:18:04;100588.03;;;13.61;63.69
39949;BME280;29070;48.102;-1.652;2023-03-26T15:44:30;100653.41;;;13.78;64.12
39949;BME280;29070;48.102;-1.652;2023-03-26T15:50:40;100664.84;;;13.90;63.03
39949;BME280;29070;48.102;-1.652;2023-03-26T16:10:27;100716.97;;;13.44;63.52
39949;BME280;29070;48.102;-1.652;2023-03-26T16:15:33;100735.78;;;13.48;64.17
39949;BME280;29070;48.102;-1.652;2023-03-26T16:26:38;100741.09;;;13.41;61.85
39949;BME280;29070;48.102;-1.652;2023-03-26T16:36:35;100776.16;;;13.48;62.62
39949;BME280;29070;48.102;-1.652;2023-03-26T17:13:55;100886.03;;;12.96;62.76
39949;BME280;29070;48.102;-1.652;2023-03-26T17:24:32;100910.00;;;12.74;62.44
39949;BME280;29070;48.102;-1.652;2023-03-26T17:30:00;100919.50;;;12.55;62.47
39949;BME280;29070;48.102;-1.652;2023-03-26T17:35:03;100936.31;;;12.41;62.66
39949;BME280;29070;48.102;-1.652;2023-03-26T17:40:25;100950.69;;;12.18;62.22
39949;BME280;29070;48.102;-1.652;2023-03-26T17:45:33;100973.13;;;12.08;62.84
39949;BME280;29070;48.102;-1.652;2023-03-26T17:51:10;100988.03;;;11.94;62.88
39949;BME280;29070;48.102;-1.652;2023-03-26T17:56:03;101003.72;;;11.74;63.25
39949;BME280;29070;48.102;-1.652;2023-03-26T18:01:21;101015.75;;;11.55;63.84
39949;BME280;29070;48.102;-1.652;2023-03-26T18:06:50;101029.88;;;11.47;64.37
39949;BME280;29070;48.102;-1.652;2023-03-26T18:17:06;101059.28;;;11.29;64.41
39949;BME280;29070;48.102;-1.652;2023-03-26T18:22:17;101059.81;;;11.18;64.90
39949;BME280;29070;48.102;-1.652;2023-03-26T18:27:20;101077.31;;;11.11;64.87
39949;BME280;29070;48.102;-1.652;2023-03-26T18:32:23;101085.31;;;11.02;65.32
39949;BME280;29070;48.102;-1.652;2023-03-26T18:37:31;101109.84;;;10.88;65.69
39949;BME280;29070;48.102;-1.652;2023-03-26T18:42:33;101121.50;;;10.85;65.69
39949;BME280;29070;48.102;-1.652;2023-03-26T18:47:34;101137.59;;;10.76;66.09
39949;BME280;29070;48.102;-1.652;2023-03-26T18:52:37;101141.16;;;10.68;66.28
39949;BME280;29070;48.102;-1.652;2023-03-26T18:57:37;101152.56;;;10.60;66.48
39949;BME280;29070;48.102;-1.652;2023-03-26T19:02:37;101160.19;;;10.55;66.88
39949;BME280;29070;48.102;-1.652;2023-03-26T19:07:38;101171.41;;;10.49;67.18
39949;BME280;29070;48.102;-1.652;2023-03-26T19:12:38;101188.06;;;10.41;67.51
39949;BME280;29070;48.102;-1.652;2023-03-26T19:17:41;101198.75;;;10.40;67.60
39949;BME280;29070;48.102;-1.652;2023-03-26T19:22:44;101209.31;;;10.32;67.82
39949;BME280;29070;48.102;-1.652;2023-03-26T19:27:45;101231.72;;;10.19;68.40
39949;BME280;29070;48.102;-1.652;2023-03-26T19:32:51;101243.22;;;10.18;68.49
39949;BME280;29070;48.102;-1.652;2023-03-26T19:37:53;101274.75;;;10.10;68.57
39949;BME280;29070;48.102;-1.652;2023-03-26T19:42:53;101283.69;;;10.01;68.82
39949;BME280;29070;48.102;-1.652;2023-03-26T19:47:53;101298.16;;;9.97;69.11
39949;BME280;29070;48.102;-1.652;2023-03-26T19:58:17;101326.13;;;9.81;69.60
39949;BME280;29070;48.102;-1.652;2023-03-26T20:03:26;101329.94;;;9.79;69.88
39949;BME280;29070;48.102;-1.652;2023-03-26T20:08:27;101350.44;;;9.75;69.71
39949;BME280;29070;48.102;-1.652;2023-03-26T20:13:28;101360.44;;;9.71;70.14
39949;BME280;29070;48.102;-1.652;2023-03-26T20:18:30;101378.16;;;9.69;70.28
39949;BME280;29070;48.102;-1.652;2023-03-26T20:23:30;101382.94;;;9.66;70.72
39949;BME280;29070;48.102;-1.652;2023-03-26T20:28:30;101392.38;;;9.75;70.77
39949;BME280;29070;48.102;-1.652;2023-03-26T20:33:31;101402.88;;;9.75;70.99
39949;BME280;29070;48.102;-1.652;2023-03-26T20:38:31;101421.56;;;9.72;71.14
39949;BME280;29070;48.102;-1.652;2023-03-26T20:43:32;101427.25;;;9.76;70.98
39949;BME280;29070;48.102;-1.652;2023-03-26T20:48:32;101450.38;;;9.72;71.29
39949;BME280;29070;48.102;-1.652;2023-03-26T20:53:33;101450.69;;;9.77;71.52
39949;BME280;29070;48.102;-1.652;2023-03-26T20:58:33;101451.66;;;9.76;71.55
39949;BME280;29070;48.102;-1.652;2023-03-26T21:03:33;101448.25;;;9.76;71.63
39949;BME280;29070;48.102;-1.652;2023-03-26T21:08:34;101457.56;;;9.78;71.89
39949;BME280;29070;48.102;-1.652;2023-03-26T21:13:48;101472.63;;;9.76;72.06
39949;BME280;29070;48.102;-1.652;2023-03-26T21:18:53;101486.75;;;9.75;72.15
39949;BME280;29070;48.102;-1.652;2023-03-26T21:29:05;101494.78;;;9.73;72.28
39949;BME280;29070;48.102;-1.652;2023-03-26T21:34:06;101509.72;;;9.73;72.41
39949;BME280;29070;48.102;-1.652;2023-03-26T21:39:09;101515.13;;;9.71;72.36
39949;BME280;29070;48.102;-1.652;2023-03-26T21:44:10;101529.84;;;9.72;72.73
39949;BME280;29070;48.102;-1.652;2023-03-26T21:49:12;101542.31;;;9.70;72.72
39949;BME280;29070;48.102;-1.652;2023-03-26T21:54:26;101558.69;;;9.72;73.25
39949;BME280;29070;48.102;-1.652;2023-03-26T22:04:35;101569.53;;;9.69;73.06
39949;BME280;29070;48.102;-1.652;2023-03-26T22:09:38;101585.56;;;9.66;72.95
39949;BME280;29070;48.102;-1.652;2023-03-26T22:14:38;101606.06;;;9.63;72.94
39949;BME280;29070;48.102;-1.652;2023-03-26T22:19:39;101615.06;;;9.60;73.29
39949;BME280;29070;48.102;-1.652;2023-03-26T22:24:39;101617.88;;;9.59;73.72
39949;BME280;29070;48.102;-1.652;2023-03-26T22:29:40;101632.59;;;9.60;73.53
39949;BME280;29070;48.102;-1.652;2023-03-26T22:34:41;101634.56;;;9.66;73.82
39949;BME280;29070;48.102;-1.652;2023-03-26T22:39:41;101653.72;;;9.66;74.05
39949;BME280;29070;48.102;-1.652;2023-03-26T22:44:41;101662.41;;;9.67;74.05
39949;BME280;29070;48.102;-1.652;2023-03-26T22:49:42;101676.03;;;9.62;73.83
39949;BME280;29070;48.102;-1.652;2023-03-26T22:54:43;101685.50;;;9.63;74.14
39949;BME280;29070;48.102;-1.652;2023-03-26T22:59:43;101680.09;;;9.65;74.28
39949;BME280;29070;48.102;-1.652;2023-03-26T23:04:44;101678.81;;;9.61;74.45
39949;BME280;29070;48.102;-1.652;2023-03-26T23:09:45;101688.28;;;9.62;74.58
39949;BME280;29070;48.102;-1.652;2023-03-26T23:14:45;101691.56;;;9.64;74.58
39949;BME280;29070;48.102;-1.652;2023-03-26T23:19:51;101703.84;;;9.63;74.81
39949;BME280;29070;48.102;-1.652;2023-03-26T23:24:52;101700.25;;;9.64;74.88
39949;BME280;29070;48.102;-1.652;2023-03-26T23:29:52;101710.91;;;9.63;74.95
39949;BME280;29070;48.102;-1.652;2023-03-26T23:34:53;101736.13;;;9.64;74.86
39949;BME280;29070;48.102;-1.652;2023-03-26T23:39:56;101735.00;;;9.66;75.03
39949;BME280;29070;48.102;-1.652;2023-03-26T23:44:58;101739.44;;;9.66;75.09
39949;BME280;29070;48.102;-1.652;2023-03-26T23:49:59;101733.50;;;9.72;75.32
39949;BME280;29070;48.102;-1.652;2023-03-26T23:55:02;101753.16;;;9.76;75.32
